createdAt,value
2023-01-19T05:06:22.737Z,0.00
2023-01-19T06:21:21.975Z,0.00
2023-01-19T06:22:21.992Z,0.00
2023-01-19T06:23:21.952Z,0.00
2023-01-19T06:24:21.949Z,0.00
2023-01-19T06:25:21.944Z,0.00
2023-01-19T06:29:21.890Z,0.00
2023-01-19T06:30:21.882Z,0.00
2023-01-19T06:31:21.943Z,0.00
2023-01-19T06:34:21.840Z,0.00
2023-01-19T06:35:21.829Z,0.00
2023-01-19T06:36:21.820Z,0.00
2023-01-19T06:37:21.813Z,0.00
2023-01-19T06:38:21.835Z,0.00
2023-01-19T06:39:21.790Z,0.00
2023-01-19T06:40:21.785Z,0.00
2023-01-19T06:41:21.769Z,0.00
2023-01-19T06:42:21.783Z,0.00
2023-01-19T06:43:21.751Z,0.00
2023-01-19T06:44:21.742Z,0.00
2023-01-19T06:45:21.736Z,0.00
2023-01-19T06:46:21.721Z,0.00
2023-01-19T06:47:21.713Z,0.00
2023-01-19T06:48:21.706Z,0.00
2023-01-19T06:49:21.689Z,0.00
2023-01-19T06:50:21.679Z,0.00
2023-01-19T06:51:21.676Z,0.00
2023-01-19T06:52:21.662Z,0.00
2023-01-19T06:53:21.652Z,0.00
2023-01-19T06:54:21.664Z,0.00
2023-01-19T06:55:21.627Z,0.00
2023-01-19T06:56:21.618Z,0.00
2023-01-19T06:57:21.611Z,0.00
2023-01-19T06:58:21.602Z,0.00
2023-01-19T06:59:21.588Z,0.00
2023-01-19T07:00:21.580Z,0.00
2023-01-19T07:01:21.769Z,0.00
2023-01-19T07:02:27.891Z,0.00
2023-01-19T07:03:22.679Z,0.00
2023-01-19T07:04:21.535Z,5.62
2023-01-19T07:05:21.532Z,5.62
2023-01-19T07:06:21.516Z,5.62
2023-01-19T07:07:21.509Z,5.62
2023-01-19T07:08:21.493Z,5.62
2023-01-19T07:09:21.483Z,5.62
2023-01-19T07:10:21.518Z,5.62
2023-01-19T07:11:30.445Z,5.62
2023-01-19T07:12:22.497Z,5.62
2023-01-19T07:13:21.456Z,5.62
2023-01-19T07:14:21.435Z,5.62
2023-01-19T07:15:21.428Z,11.25
2023-01-19T07:16:21.489Z,11.25
2023-01-19T07:17:21.421Z,11.25
2023-01-19T07:18:21.396Z,11.25
2023-01-19T07:19:21.387Z,11.25
2023-01-19T07:20:21.377Z,11.25
2023-01-19T07:21:21.380Z,11.25
2023-01-19T07:22:21.354Z,11.25
2023-01-19T07:23:21.340Z,11.25
2023-01-19T07:24:21.329Z,11.25
2023-01-19T07:25:21.319Z,11.25
2023-01-19T07:26:21.722Z,11.25
2023-01-19T07:27:21.304Z,11.25
2023-01-19T07:28:21.290Z,11.25
2023-01-19T07:29:21.280Z,16.87
2023-01-19T07:30:21.269Z,16.87
2023-01-19T07:31:21.414Z,16.87
2023-01-19T07:32:21.255Z,16.87
2023-01-19T07:33:21.242Z,16.87
2023-01-19T07:34:21.234Z,16.87
2023-01-19T07:35:21.218Z,16.87
2023-01-19T07:36:21.215Z,16.87
2023-01-19T07:37:21.197Z,16.87
2023-01-19T07:38:21.188Z,16.87
2023-01-19T07:39:21.181Z,16.87
2023-01-19T07:40:23.323Z,16.87
2023-01-19T07:41:21.157Z,16.87
2023-01-19T07:42:21.235Z,16.87
2023-01-19T07:43:21.136Z,16.87
2023-01-19T07:44:21.129Z,16.87
2023-01-19T07:45:21.135Z,16.87
2023-01-19T07:46:21.164Z,16.87
2023-01-19T07:47:21.108Z,22.50
2023-01-19T07:48:21.090Z,22.50
2023-01-19T07:49:21.079Z,22.50
2023-01-19T07:50:21.069Z,22.50
2023-01-19T07:51:21.054Z,22.50
2023-01-19T07:52:21.049Z,22.50
2023-01-19T07:53:21.038Z,22.50
2023-01-19T07:54:21.028Z,22.50
2023-01-19T07:55:21.017Z,22.50
2023-01-19T07:56:21.011Z,22.50
2023-01-19T07:57:21.001Z,28.12
2023-01-19T07:58:21.016Z,28.12
2023-01-19T07:59:20.976Z,28.12
2023-01-19T08:00:20.965Z,28.12
2023-01-19T08:01:21.043Z,28.12
2023-01-19T08:02:21.050Z,28.12
2023-01-19T08:03:20.936Z,28.12
2023-01-19T08:04:20.938Z,28.12
2023-01-19T08:05:20.919Z,28.12
2023-01-19T08:06:20.903Z,28.12
2023-01-19T08:07:20.891Z,28.12
2023-01-19T08:08:20.897Z,28.12
2023-01-19T08:09:20.872Z,28.12
2023-01-19T08:10:20.864Z,28.12
2023-01-19T08:11:20.854Z,28.12
2023-01-19T08:12:20.841Z,22.50
2023-01-19T08:13:20.837Z,22.50
2023-01-19T08:14:20.887Z,22.50
2023-01-19T08:15:20.809Z,22.50
2023-01-19T08:16:20.808Z,22.50
2023-01-19T08:17:20.793Z,22.50
2023-01-19T08:18:20.794Z,22.50
2023-01-19T08:19:20.783Z,22.50
2023-01-19T08:20:20.759Z,22.50
2023-01-19T08:21:20.765Z,28.12
2023-01-19T08:22:20.740Z,28.12
2023-01-19T08:23:20.733Z,28.12
2023-01-19T08:24:20.760Z,28.12
2023-01-19T08:25:20.712Z,28.12
2023-01-19T08:26:20.706Z,28.12
2023-01-19T08:27:20.687Z,28.12
2023-01-19T08:28:20.676Z,28.12
2023-01-19T08:29:20.667Z,28.12
2023-01-19T08:30:20.681Z,28.12
2023-01-19T08:31:24.355Z,28.12
2023-01-19T08:32:20.753Z,28.12
2023-01-19T08:33:20.627Z,28.12
2023-01-19T08:34:20.618Z,28.12
2023-01-19T08:35:20.611Z,28.12
2023-01-19T08:36:20.597Z,28.12
2023-01-19T08:37:20.598Z,33.75
2023-01-19T08:38:20.575Z,33.75
2023-01-19T08:39:20.570Z,33.75
2023-01-19T08:40:20.556Z,33.75
2023-01-19T08:41:20.547Z,33.75
2023-01-19T08:42:20.537Z,33.75
2023-01-19T08:43:20.525Z,33.75
2023-01-19T08:44:20.520Z,33.75
2023-01-19T08:45:20.513Z,33.75
2023-01-19T08:46:20.576Z,33.75
2023-01-19T08:47:20.535Z,39.37
2023-01-19T08:48:20.473Z,39.37
2023-01-19T08:49:20.469Z,33.75
2023-01-19T08:50:20.454Z,39.37
2023-01-19T08:51:20.455Z,39.37
2023-01-19T08:52:20.434Z,39.37
2023-01-19T08:53:20.427Z,39.37
2023-01-19T08:54:20.416Z,39.37
2023-01-19T08:55:20.409Z,39.37
2023-01-19T08:56:20.759Z,39.37
2023-01-19T08:57:20.381Z,39.37
2023-01-19T08:58:20.372Z,45.00
2023-01-19T08:59:20.358Z,45.00
2023-01-19T09:00:20.365Z,45.00
2023-01-19T09:01:20.458Z,45.00
2023-01-19T09:02:20.620Z,45.00
2023-01-19T09:03:20.365Z,45.00
2023-01-19T09:04:20.311Z,45.00
2023-01-19T09:05:20.309Z,45.00
2023-01-19T09:06:20.292Z,45.00
2023-01-19T09:07:20.303Z,45.00
2023-01-19T09:08:20.318Z,45.00
2023-01-19T09:09:20.257Z,45.00
2023-01-19T09:10:20.247Z,39.37
2023-01-19T09:11:20.243Z,39.37
2023-01-19T09:12:20.231Z,39.37
2023-01-19T09:13:20.225Z,39.37
2023-01-19T09:14:20.209Z,39.37
2023-01-19T09:15:20.199Z,39.37
2023-01-19T09:16:20.216Z,39.37
2023-01-19T09:17:20.179Z,39.37
2023-01-19T09:18:20.193Z,39.37
2023-01-19T09:19:20.155Z,39.37
2023-01-19T09:20:20.148Z,39.37
2023-01-19T09:21:20.139Z,39.37
2023-01-19T09:22:20.128Z,45.00
2023-01-19T09:23:20.181Z,45.00
2023-01-19T09:24:20.106Z,45.00
2023-01-19T09:25:20.102Z,45.00
2023-01-19T09:26:20.085Z,45.00
2023-01-19T09:27:20.080Z,45.00
2023-01-19T09:28:20.068Z,45.00
2023-01-19T09:29:20.052Z,45.00
2023-01-19T09:30:20.045Z,50.62
2023-01-19T09:31:20.332Z,50.62
2023-01-19T09:32:20.028Z,50.62
2023-01-19T09:33:20.020Z,50.62
2023-01-19T09:34:20.044Z,50.62
2023-01-19T09:35:19.991Z,50.62
2023-01-19T09:36:20.010Z,50.62
2023-01-19T09:37:19.976Z,50.62
2023-01-19T09:38:19.967Z,50.62
2023-01-19T09:39:19.955Z,50.62
2023-01-19T09:40:19.943Z,50.62
2023-01-19T09:41:19.933Z,50.62
2023-01-19T09:42:19.921Z,56.25
2023-01-19T09:43:19.916Z,56.25
2023-01-19T09:44:19.932Z,56.25
2023-01-19T09:45:19.900Z,56.25
2023-01-19T09:46:19.900Z,56.25
2023-01-19T09:47:19.868Z,56.25
2023-01-19T09:48:19.861Z,56.25
2023-01-19T09:49:19.861Z,61.87
2023-01-19T09:50:19.930Z,61.87
2023-01-19T09:51:19.833Z,61.87
2023-01-19T09:52:19.823Z,67.50
2023-01-19T09:53:19.808Z,67.50
2023-01-19T09:54:19.850Z,61.87
2023-01-19T09:55:19.787Z,61.87
2023-01-19T09:56:19.777Z,61.87
2023-01-19T09:57:19.764Z,61.87
2023-01-19T09:58:19.788Z,61.87
2023-01-19T09:59:19.746Z,61.87
2023-01-19T10:00:19.785Z,56.25
2023-01-19T10:01:19.839Z,56.25
2023-01-19T10:02:19.731Z,56.25
2023-01-19T10:03:19.733Z,56.25
2023-01-19T10:04:19.696Z,56.25
2023-01-19T10:05:19.682Z,50.62
2023-01-19T10:06:19.691Z,50.62
2023-01-19T10:07:19.671Z,50.62
2023-01-19T10:08:19.653Z,50.62
2023-01-19T10:09:19.641Z,56.25
2023-01-19T10:10:19.705Z,56.25
2023-01-19T10:11:19.625Z,56.25
2023-01-19T10:12:19.962Z,56.25
2023-01-19T10:13:19.603Z,56.25
2023-01-19T10:14:19.600Z,56.25
2023-01-19T10:15:19.581Z,56.25
2023-01-19T10:16:19.629Z,61.87
2023-01-19T10:17:19.564Z,61.87
2023-01-19T10:18:19.560Z,61.87
2023-01-19T10:19:19.540Z,61.87
2023-01-19T10:20:19.564Z,61.87
2023-01-19T10:21:19.517Z,61.87
2023-01-19T10:22:19.590Z,61.87
2023-01-19T10:23:19.498Z,61.87
2023-01-19T10:24:19.510Z,61.87
2023-01-19T10:25:19.613Z,61.87
2023-01-19T10:26:19.479Z,61.87
2023-01-19T10:27:19.484Z,61.87
2023-01-19T10:28:19.452Z,61.87
2023-01-19T10:29:19.439Z,67.50
2023-01-19T10:30:19.523Z,67.50
2023-01-19T10:31:19.596Z,67.50
2023-01-19T10:32:19.409Z,67.50
2023-01-19T10:33:19.396Z,67.50
2023-01-19T10:34:23.011Z,67.50
2023-01-19T10:35:19.376Z,67.50
2023-01-19T10:36:19.368Z,67.50
2023-01-19T10:37:19.354Z,67.50
2023-01-19T10:38:19.372Z,67.50
2023-01-19T10:39:19.329Z,67.50
2023-01-19T10:40:19.439Z,61.87
2023-01-19T10:41:19.308Z,61.87
2023-01-19T10:42:19.300Z,61.87
2023-01-19T10:43:19.289Z,61.87
2023-01-19T10:44:19.289Z,61.87
2023-01-19T10:45:19.314Z,61.87
2023-01-19T10:46:19.309Z,61.87
2023-01-19T10:47:19.283Z,61.87
2023-01-19T10:48:19.242Z,61.87
2023-01-19T10:49:19.236Z,61.87
2023-01-19T10:50:19.346Z,61.87
2023-01-19T10:51:19.247Z,56.25
2023-01-19T10:52:19.196Z,56.25
2023-01-19T10:53:19.201Z,56.25
2023-01-19T10:54:19.210Z,61.87
2023-01-19T10:55:19.197Z,61.87
2023-01-19T10:56:19.190Z,67.50
2023-01-19T10:57:19.205Z,67.50
2023-01-19T10:58:19.134Z,67.50
2023-01-19T10:59:19.118Z,67.50
2023-01-19T11:00:19.168Z,67.50
2023-01-19T11:01:19.257Z,67.50
2023-01-19T11:02:19.338Z,67.50
2023-01-19T11:03:19.160Z,73.12
2023-01-19T11:04:19.106Z,67.50
2023-01-19T11:05:19.062Z,67.50
2023-01-19T11:06:19.053Z,73.12
2023-01-19T11:07:19.040Z,73.12
2023-01-19T11:08:19.072Z,73.12
2023-01-19T11:09:19.017Z,73.12
2023-01-19T11:10:19.043Z,73.12
2023-01-19T11:11:18.997Z,73.12
2023-01-19T11:12:18.988Z,78.75
2023-01-19T11:13:18.972Z,78.75
2023-01-19T11:14:18.977Z,78.75
2023-01-19T11:15:18.955Z,78.75
2023-01-19T11:16:18.965Z,78.75
2023-01-19T11:17:18.929Z,84.37
2023-01-19T11:18:18.919Z,84.37
2023-01-19T11:19:18.912Z,78.75
2023-01-19T11:20:18.898Z,78.75
2023-01-19T11:21:18.893Z,78.75
2023-01-19T11:22:18.883Z,78.75
2023-01-19T11:23:18.870Z,78.75
2023-01-19T11:24:18.879Z,78.75
2023-01-19T11:25:18.848Z,78.75
2023-01-19T11:26:18.885Z,78.75
2023-01-19T11:27:18.827Z,78.75
2023-01-19T11:28:18.819Z,78.75
2023-01-19T11:29:18.808Z,78.75
2023-01-19T11:30:18.802Z,84.37
2023-01-19T11:31:19.017Z,78.75
2023-01-19T11:32:18.775Z,84.37
2023-01-19T11:33:18.766Z,84.37
2023-01-19T11:34:18.757Z,84.37
2023-01-19T11:35:18.743Z,84.37
2023-01-19T11:36:18.748Z,84.37
2023-01-19T11:37:18.731Z,84.37
2023-01-19T11:38:18.710Z,78.75
2023-01-19T11:39:18.702Z,78.75
2023-01-19T11:40:18.750Z,78.75
2023-01-19T11:41:18.715Z,73.12
2023-01-19T11:42:18.704Z,73.12
2023-01-19T11:43:18.664Z,73.12
2023-01-19T11:44:18.649Z,78.75
2023-01-19T11:45:18.653Z,78.75
2023-01-19T11:46:18.638Z,78.75
2023-01-19T11:47:18.628Z,78.75
2023-01-19T11:48:18.612Z,84.37
2023-01-19T11:49:18.605Z,84.37
2023-01-19T11:50:18.594Z,84.37
2023-01-19T11:51:18.595Z,84.37
2023-01-19T11:52:18.575Z,84.37
2023-01-19T11:53:18.560Z,90.00
2023-01-19T11:54:18.580Z,90.00
2023-01-19T11:55:18.549Z,90.00
2023-01-19T11:56:18.533Z,90.00
2023-01-19T11:57:18.521Z,90.00
2023-01-19T11:58:18.575Z,90.00
2023-01-19T11:59:18.503Z,90.00
2023-01-19T12:00:18.505Z,90.00
2023-01-19T12:01:18.497Z,90.00
2023-01-19T12:02:18.509Z,90.00
2023-01-19T12:03:18.542Z,90.00
2023-01-19T12:04:18.455Z,90.00
2023-01-19T12:05:18.440Z,90.00
2023-01-19T12:06:18.432Z,90.00
2023-01-19T12:07:18.447Z,90.00
2023-01-19T12:08:18.411Z,95.62
2023-01-19T12:09:18.397Z,95.62
2023-01-19T12:10:18.387Z,101.25
2023-01-19T12:11:18.377Z,101.25
2023-01-19T12:12:18.366Z,95.62
2023-01-19T12:13:18.357Z,95.62
2023-01-19T12:14:18.375Z,101.25
2023-01-19T12:15:18.359Z,106.87
2023-01-19T12:16:18.445Z,106.87
2023-01-19T12:17:18.320Z,106.87
2023-01-19T12:18:18.421Z,106.87
2023-01-19T12:19:18.314Z,112.50
2023-01-19T12:20:18.287Z,112.50
2023-01-19T12:21:18.274Z,112.50
2023-01-19T12:22:18.279Z,112.50
2023-01-19T12:23:18.252Z,112.50
2023-01-19T12:24:18.327Z,118.12
2023-01-19T12:25:18.245Z,118.12
2023-01-19T12:26:18.221Z,123.75
2023-01-19T12:27:18.218Z,123.75
2023-01-19T12:28:18.199Z,129.37
2023-01-19T12:29:18.189Z,129.37
2023-01-19T12:30:18.206Z,135.00
2023-01-19T12:31:18.393Z,140.62
2023-01-19T12:32:18.175Z,140.62
2023-01-19T12:33:18.149Z,146.25
2023-01-19T12:34:18.134Z,146.25
2023-01-19T12:35:18.128Z,146.25
2023-01-19T12:36:18.185Z,151.87
2023-01-19T12:37:18.105Z,151.87
2023-01-19T12:38:18.098Z,151.87
2023-01-19T12:39:18.088Z,151.87
2023-01-19T12:40:18.092Z,157.50
2023-01-19T12:41:18.067Z,157.50
2023-01-19T12:42:20.456Z,157.50
2023-01-19T12:43:18.045Z,157.50
2023-01-19T12:44:18.033Z,157.50
2023-01-19T12:45:18.028Z,157.50
2023-01-19T12:46:18.105Z,157.50
2023-01-19T12:47:18.007Z,157.50
2023-01-19T12:48:18.013Z,157.50
2023-01-19T12:49:17.989Z,157.50
2023-01-19T12:50:17.993Z,151.87
2023-01-19T12:51:17.964Z,157.50
2023-01-19T12:52:17.951Z,157.50
2023-01-19T12:53:17.950Z,157.50
2023-01-19T12:54:19.904Z,151.87
2023-01-19T12:55:17.921Z,151.87
2023-01-19T12:56:17.966Z,151.87
2023-01-19T12:57:17.899Z,151.87
2023-01-19T12:58:17.894Z,151.87
2023-01-19T12:59:17.881Z,151.87
2023-01-19T13:00:19.847Z,151.87
2023-01-19T13:01:17.948Z,151.87
2023-01-19T13:02:17.994Z,146.25
2023-01-19T13:03:17.838Z,146.25
2023-01-19T13:04:17.828Z,146.25
2023-01-19T13:05:17.818Z,146.25
2023-01-19T13:06:17.805Z,146.25
2023-01-19T13:07:17.801Z,146.25
2023-01-19T13:08:17.790Z,146.25
2023-01-19T13:09:17.775Z,146.25
2023-01-19T13:10:17.768Z,146.25
2023-01-19T13:11:17.757Z,146.25
2023-01-19T13:12:17.747Z,146.25
2023-01-19T13:13:17.741Z,146.25
2023-01-19T13:14:17.727Z,146.25
2023-01-19T13:15:17.713Z,146.25
2023-01-19T13:16:17.770Z,146.25
2023-01-19T13:17:17.693Z,146.25
2023-01-19T13:18:17.714Z,146.25
2023-01-19T13:19:17.691Z,146.25
2023-01-19T13:20:17.675Z,146.25
2023-01-19T13:21:17.654Z,146.25
2023-01-19T13:22:17.646Z,146.25
2023-01-19T13:23:17.639Z,146.25
2023-01-19T13:24:17.636Z,146.25
2023-01-19T13:25:17.614Z,146.25
2023-01-19T13:26:17.638Z,146.25
2023-01-19T13:27:17.590Z,146.25
2023-01-19T13:28:17.584Z,146.25
2023-01-19T13:29:17.580Z,146.25
2023-01-19T13:30:17.718Z,146.25
2023-01-19T13:31:17.696Z,146.25
2023-01-19T13:32:17.561Z,146.25
2023-01-19T13:33:17.533Z,146.25
2023-01-19T13:34:17.547Z,146.25
2023-01-19T13:35:17.517Z,146.25
2023-01-19T13:36:17.497Z,146.25
2023-01-19T13:37:17.489Z,146.25
2023-01-19T13:38:17.477Z,146.25
2023-01-19T13:39:18.635Z,146.25
2023-01-19T13:40:17.460Z,146.25
2023-01-19T13:41:17.451Z,146.25
2023-01-19T13:42:17.437Z,146.25
2023-01-19T13:43:17.431Z,146.25
2023-01-19T13:44:17.419Z,146.25
2023-01-19T13:45:17.410Z,146.25
2023-01-19T13:46:17.443Z,146.25
2023-01-19T13:47:17.390Z,146.25
2023-01-19T13:48:17.377Z,146.25
2023-01-19T13:49:17.367Z,146.25
2023-01-19T13:50:17.416Z,146.25
2023-01-19T13:51:17.353Z,146.25
2023-01-19T13:52:17.338Z,146.25
2023-01-19T13:53:17.326Z,146.25
2023-01-19T13:54:17.356Z,146.25
2023-01-19T13:55:17.338Z,146.25
2023-01-19T13:56:17.296Z,146.25
2023-01-19T13:57:17.311Z,146.25
2023-01-19T13:58:17.277Z,146.25
2023-01-19T13:59:17.290Z,146.25
2023-01-19T14:00:17.252Z,146.25
2023-01-19T14:01:17.717Z,146.25
2023-01-19T14:02:17.277Z,146.25
2023-01-19T14:03:17.289Z,146.25
2023-01-19T14:04:17.213Z,146.25
2023-01-19T14:05:17.204Z,146.25
2023-01-19T14:06:17.338Z,146.25
2023-01-19T14:07:17.233Z,146.25
2023-01-19T14:08:17.169Z,146.25
2023-01-19T14:09:17.177Z,140.62
2023-01-19T14:10:17.155Z,140.62
2023-01-19T14:11:17.143Z,140.62
2023-01-19T14:12:17.201Z,140.62
2023-01-19T14:13:17.124Z,135.00
2023-01-19T14:14:17.112Z,135.00
2023-01-19T14:15:17.099Z,129.37
2023-01-19T14:16:17.175Z,129.37
2023-01-19T14:17:17.079Z,129.37
2023-01-19T14:18:17.083Z,123.75
2023-01-19T14:19:17.060Z,123.75
2023-01-19T14:20:17.052Z,123.75
2023-01-19T14:21:17.036Z,118.12
2023-01-19T14:22:17.061Z,118.12
2023-01-19T14:23:17.018Z,112.50
2023-01-19T14:24:17.167Z,112.50
2023-01-19T14:25:17.023Z,112.50
2023-01-19T14:26:17.015Z,106.87
2023-01-19T14:27:17.002Z,106.87
2023-01-19T14:28:16.985Z,106.87
2023-01-19T14:29:16.997Z,101.25
2023-01-19T14:30:16.948Z,101.25
2023-01-19T14:31:17.003Z,101.25
2023-01-19T14:32:16.933Z,95.62
2023-01-19T14:33:16.911Z,95.62
2023-01-19T14:34:16.904Z,95.62
2023-01-19T14:35:16.892Z,95.62
2023-01-19T14:36:17.987Z,90.00
2023-01-19T14:37:16.883Z,90.00
2023-01-19T14:38:16.931Z,90.00
2023-01-19T14:39:16.850Z,90.00
2023-01-19T14:40:16.844Z,90.00
2023-01-19T14:41:16.847Z,90.00
2023-01-19T14:42:17.599Z,90.00
2023-01-19T14:43:16.812Z,90.00
2023-01-19T14:44:16.797Z,90.00
2023-01-19T14:45:16.793Z,90.00
2023-01-19T14:46:16.835Z,90.00
2023-01-19T14:47:16.771Z,90.00
2023-01-19T14:48:18.064Z,90.00
2023-01-19T14:49:16.754Z,90.00
2023-01-19T14:50:16.739Z,90.00
2023-01-19T14:51:16.727Z,90.00
2023-01-19T14:52:16.721Z,90.00
2023-01-19T14:53:16.708Z,90.00
2023-01-19T14:54:16.722Z,84.37
2023-01-19T14:55:16.693Z,84.37
2023-01-19T14:56:16.675Z,84.37
2023-01-19T14:57:16.669Z,84.37
2023-01-19T14:58:16.652Z,84.37
2023-01-19T14:59:16.645Z,84.37
2023-01-19T15:00:17.465Z,84.37
2023-01-19T15:01:16.715Z,84.37
2023-01-19T15:02:16.643Z,78.75
2023-01-19T15:03:16.609Z,78.75
2023-01-19T15:04:16.597Z,78.75
2023-01-19T15:05:16.585Z,78.75
2023-01-19T15:06:16.585Z,78.75
2023-01-19T15:07:16.562Z,78.75
2023-01-19T15:08:16.558Z,78.75
2023-01-19T15:09:16.553Z,73.12
2023-01-19T15:10:16.558Z,73.12
2023-01-19T15:11:16.536Z,73.12
2023-01-19T15:12:17.461Z,73.12
2023-01-19T15:13:16.506Z,73.12
2023-01-19T15:14:16.493Z,73.12
2023-01-19T15:15:16.500Z,67.50
2023-01-19T15:16:16.514Z,67.50
2023-01-19T15:17:16.463Z,67.50
2023-01-19T15:18:16.454Z,67.50
2023-01-19T15:19:16.451Z,67.50
2023-01-19T15:20:16.435Z,67.50
2023-01-19T15:21:16.425Z,67.50
2023-01-19T15:22:16.411Z,67.50
2023-01-19T15:23:16.401Z,61.87
2023-01-19T15:24:17.990Z,61.87
2023-01-19T15:25:16.381Z,61.87
2023-01-19T15:26:16.409Z,61.87
2023-01-19T15:27:16.364Z,61.87
2023-01-19T15:28:16.353Z,61.87
2023-01-19T15:29:16.336Z,61.87
2023-01-19T15:30:16.438Z,61.87
2023-01-19T15:31:16.391Z,61.87
2023-01-19T15:32:16.306Z,61.87
2023-01-19T15:33:16.298Z,61.87
2023-01-19T15:34:16.291Z,67.50
2023-01-19T15:35:16.278Z,61.87
2023-01-19T15:36:17.919Z,67.50
2023-01-19T15:37:16.266Z,84.37
2023-01-19T15:38:16.247Z,90.00
2023-01-19T15:39:16.241Z,106.87
2023-01-19T15:40:16.222Z,118.12
2023-01-19T15:41:16.214Z,118.12
2023-01-19T15:42:16.233Z,163.12
2023-01-19T15:43:16.197Z,241.87
2023-01-19T15:44:16.190Z,326.25
2023-01-19T15:45:16.174Z,399.37
2023-01-19T15:46:16.162Z,438.75
2023-01-19T15:47:16.159Z,489.37
2023-01-19T15:48:16.156Z,495.00
2023-01-19T15:49:16.134Z,483.75
2023-01-19T15:50:16.135Z,461.25
2023-01-19T15:51:16.116Z,416.25
2023-01-19T15:52:17.151Z,388.12
2023-01-19T15:53:16.109Z,382.50
2023-01-19T15:54:16.080Z,354.37
2023-01-19T15:55:16.088Z,331.87
2023-01-19T15:56:16.059Z,315.00
2023-01-19T15:57:16.050Z,298.12
2023-01-19T15:58:16.059Z,264.37
2023-01-19T15:59:16.026Z,230.62
2023-01-19T16:00:16.022Z,202.50
2023-01-19T16:01:16.157Z,174.37
2023-01-19T16:02:16.256Z,140.62
2023-01-19T16:03:15.987Z,95.62
2023-01-19T16:04:17.948Z,61.87
2023-01-19T16:05:15.972Z,45.00
2023-01-19T16:06:15.963Z,33.75
2023-01-19T16:07:15.962Z,28.12
2023-01-19T16:08:15.935Z,16.87
2023-01-19T16:09:15.927Z,16.87
2023-01-19T16:10:15.913Z,11.25
2023-01-19T16:11:15.905Z,11.25
2023-01-19T16:12:15.896Z,5.62
2023-01-19T16:13:15.879Z,5.62
2023-01-19T16:14:17.496Z,5.62
2023-01-19T16:15:15.860Z,5.62
2023-01-19T16:16:15.939Z,5.62
2023-01-19T16:17:15.837Z,5.62
2023-01-19T16:18:15.836Z,5.62
2023-01-19T16:19:15.833Z,5.62
2023-01-19T16:20:16.253Z,0.00
2023-01-19T16:21:15.796Z,0.00
2023-01-19T16:22:15.790Z,0.00
2023-01-19T16:23:16.083Z,0.00
2023-01-19T16:24:15.768Z,0.00
2023-01-19T16:25:15.760Z,0.00
2023-01-19T16:26:17.564Z,0.00
2023-01-19T16:27:15.742Z,0.00
2023-01-19T16:28:15.723Z,0.00
2023-01-19T16:29:15.729Z,0.00
2023-01-19T16:30:15.738Z,0.00
2023-01-19T16:31:15.796Z,0.00
2023-01-19T16:32:16.993Z,0.00
2023-01-19T16:33:15.672Z,0.00
2023-01-19T16:34:15.666Z,0.00
2023-01-19T16:35:15.659Z,0.00
2023-01-19T16:36:15.663Z,0.00
2023-01-19T16:37:15.631Z,0.00
2023-01-19T16:38:15.624Z,0.00
2023-01-19T16:39:15.620Z,0.00
2023-01-19T16:40:15.599Z,0.00
2023-01-19T16:41:15.592Z,0.00
2023-01-19T16:42:15.584Z,0.00
2023-01-19T16:43:15.571Z,0.00
2023-01-19T16:44:15.559Z,0.00
2023-01-19T16:45:15.548Z,0.00
2023-01-19T16:46:15.612Z,0.00
2023-01-19T16:47:15.527Z,0.00
2023-01-19T16:48:15.517Z,0.00
2023-01-19T16:49:15.505Z,0.00
2023-01-19T16:55:15.446Z,0.00
2023-01-19T16:56:15.435Z,0.00
2023-01-19T17:03:15.367Z,0.00
2023-01-19T17:04:15.356Z,0.00
2023-01-19T17:05:15.349Z,0.00
2023-01-19T17:06:15.361Z,0.00
2023-01-19T17:07:16.166Z,0.00
2023-01-19T17:08:15.313Z,0.00
2023-01-19T17:46:15.058Z,0.00
2023-01-19T21:58:12.305Z,0.00
